sensor_id;sensor_type;location;lat;lon;timestamp;P1;durP1;ratioP1;P2;durP2;ratioP2
49826;SDS011;35715;51.570;6.036;2022-07-23T00:02:06;4.15;;;3.10;;
49826;SDS011;35715;51.570;6.036;2022-07-23T00:04:32;4.10;;;2.42;;
49826;SDS011;35715;51.570;6.036;2022-07-23T00:07:00;6.15;;;2.78;;
49826;SDS011;35715;51.570;6.036;2022-07-23T00:09:25;3.15;;;2.53;;
49826;SDS011;35715;51.570;6.036;2022-07-23T00:11:51;4.93;;;2.33;;
49826;SDS011;35715;51.570;6.036;2022-07-23T00:14:16;4.70;;;2.90;;
49826;SDS011;35715;51.570;6.036;2022-07-23T00:16:42;3.15;;;2.83;;
49826;SDS011;35715;51.570;6.036;2022-07-23T00:19:10;4.18;;;3.42;;
49826;SDS011;35715;51.570;6.036;2022-07-23T00:21:35;3.35;;;2.35;;
49826;SDS011;35715;51.570;6.036;2022-07-23T00:24:01;8.13;;;2.95;;
49826;SDS011;35715;51.570;6.036;2022-07-23T00:28:57;3.75;;;2.45;;
49826;SDS011;35715;51.570;6.036;2022-07-23T00:31:22;8.38;;;2.97;;
49826;SDS011;35715;51.570;6.036;2022-07-23T00:33:48;11.13;;;3.38;;
49826;SDS011;35715;51.570;6.036;2022-07-23T00:36:13;3.03;;;2.83;;
49826;SDS011;35715;51.570;6.036;2022-07-23T00:38:38;3.20;;;2.35;;
49826;SDS011;35715;51.570;6.036;2022-07-23T00:41:04;2.97;;;2.72;;
49826;SDS011;35715;51.570;6.036;2022-07-23T00:43:30;2.72;;;2.50;;
49826;SDS011;35715;51.570;6.036;2022-07-23T00:45:57;5.03;;;2.60;;
49826;SDS011;35715;51.570;6.036;2022-07-23T00:48:22;5.38;;;2.55;;
49826;SDS011;35715;51.570;6.036;2022-07-23T00:50:48;3.53;;;2.78;;
49826;SDS011;35715;51.570;6.036;2022-07-23T00:53:13;3.33;;;2.42;;
49826;SDS011;35715;51.570;6.036;2022-07-23T00:55:41;8.82;;;4.00;;
49826;SDS011;35715;51.570;6.036;2022-07-23T00:58:06;2.75;;;2.35;;
49826;SDS011;35715;51.570;6.036;2022-07-23T01:00:33;8.25;;;3.30;;
49826;SDS011;35715;51.570;6.036;2022-07-23T01:02:58;5.47;;;2.70;;
49826;SDS011;35715;51.570;6.036;2022-07-23T01:05:27;5.60;;;3.00;;
49826;SDS011;35715;51.570;6.036;2022-07-23T01:07:52;6.10;;;2.80;;
49826;SDS011;35715;51.570;6.036;2022-07-23T01:10:18;2.83;;;2.63;;
49826;SDS011;35715;51.570;6.036;2022-07-23T01:15:36;7.90;;;3.63;;
49826;SDS011;35715;51.570;6.036;2022-07-23T01:18:04;4.10;;;2.78;;
49826;SDS011;35715;51.570;6.036;2022-07-23T01:20:30;8.50;;;2.80;;
49826;SDS011;35715;51.570;6.036;2022-07-23T01:22:57;4.53;;;2.78;;
49826;SDS011;35715;51.570;6.036;2022-07-23T01:25:24;3.70;;;2.63;;
49826;SDS011;35715;51.570;6.036;2022-07-23T01:27:50;4.80;;;2.78;;
49826;SDS011;35715;51.570;6.036;2022-07-23T01:30:17;4.30;;;2.92;;
49826;SDS011;35715;51.570;6.036;2022-07-23T01:32:42;3.45;;;3.00;;
49826;SDS011;35715;51.570;6.036;2022-07-23T01:35:11;4.18;;;2.75;;
49826;SDS011;35715;51.570;6.036;2022-07-23T01:37:36;2.25;;;1.98;;
49826;SDS011;35715;51.570;6.036;2022-07-23T01:40:02;6.93;;;3.13;;
49826;SDS011;35715;51.570;6.036;2022-07-23T01:42:29;5.25;;;3.70;;
49826;SDS011;35715;51.570;6.036;2022-07-23T01:44:54;4.35;;;3.42;;
49826;SDS011;35715;51.570;6.036;2022-07-23T01:47:22;2.90;;;2.70;;
49826;SDS011;35715;51.570;6.036;2022-07-23T01:49:47;6.13;;;3.28;;
49826;SDS011;35715;51.570;6.036;2022-07-23T01:52:13;4.70;;;3.17;;
49826;SDS011;35715;51.570;6.036;2022-07-23T01:54:38;3.08;;;2.60;;
49826;SDS011;35715;51.570;6.036;2022-07-23T01:57:07;4.53;;;2.78;;
49826;SDS011;35715;51.570;6.036;2022-07-23T01:59:33;3.90;;;2.90;;
49826;SDS011;35715;51.570;6.036;2022-07-23T02:01:59;5.38;;;2.80;;
49826;SDS011;35715;51.570;6.036;2022-07-23T02:04:24;4.65;;;3.38;;
49826;SDS011;35715;51.570;6.036;2022-07-23T02:09:24;4.50;;;2.53;;
49826;SDS011;35715;51.570;6.036;2022-07-23T02:11:49;6.32;;;3.25;;
49826;SDS011;35715;51.570;6.036;2022-07-23T02:14:14;3.03;;;2.83;;
49826;SDS011;35715;51.570;6.036;2022-07-23T02:16:42;3.70;;;3.40;;
49826;SDS011;35715;51.570;6.036;2022-07-23T02:19:07;4.57;;;2.83;;
49826;SDS011;35715;51.570;6.036;2022-07-23T02:21:32;5.22;;;4.10;;
49826;SDS011;35715;51.570;6.036;2022-07-23T02:23:58;9.57;;;3.47;;
49826;SDS011;35715;51.570;6.036;2022-07-23T02:26:24;3.35;;;3.05;;
49826;SDS011;35715;51.570;6.036;2022-07-23T02:28:49;5.13;;;3.13;;
49826;SDS011;35715;51.570;6.036;2022-07-23T02:31:15;4.25;;;2.95;;
49826;SDS011;35715;51.570;6.036;2022-07-23T02:33:40;8.07;;;3.83;;
49826;SDS011;35715;51.570;6.036;2022-07-23T02:36:06;4.22;;;2.65;;
49826;SDS011;35715;51.570;6.036;2022-07-23T02:38:31;17.05;;;3.97;;
49826;SDS011;35715;51.570;6.036;2022-07-23T02:40:57;5.68;;;3.30;;
49826;SDS011;35715;51.570;6.036;2022-07-23T02:43:22;3.72;;;3.53;;
49826;SDS011;35715;51.570;6.036;2022-07-23T02:45:52;6.40;;;3.80;;
49826;SDS011;35715;51.570;6.036;2022-07-23T02:48:18;3.70;;;3.30;;
49826;SDS011;35715;51.570;6.036;2022-07-23T02:50:43;4.18;;;3.25;;
49826;SDS011;35715;51.570;6.036;2022-07-23T02:53:09;4.15;;;3.75;;
49826;SDS011;35715;51.570;6.036;2022-07-23T02:55:41;4.47;;;3.42;;
49826;SDS011;35715;51.570;6.036;2022-07-23T02:58:06;4.10;;;3.70;;
49826;SDS011;35715;51.570;6.036;2022-07-23T03:00:32;3.83;;;3.40;;
49826;SDS011;35715;51.570;6.036;2022-07-23T03:02:57;5.18;;;3.55;;
49826;SDS011;35715;51.570;6.036;2022-07-23T03:05:23;4.60;;;4.10;;
49826;SDS011;35715;51.570;6.036;2022-07-23T03:07:48;8.85;;;4.32;;
49826;SDS011;35715;51.570;6.036;2022-07-23T03:10:13;6.07;;;4.45;;
49826;SDS011;35715;51.570;6.036;2022-07-23T03:12:38;5.45;;;3.88;;
49826;SDS011;35715;51.570;6.036;2022-07-23T03:15:04;3.70;;;3.40;;
49826;SDS011;35715;51.570;6.036;2022-07-23T03:17:30;5.50;;;3.25;;
49826;SDS011;35715;51.570;6.036;2022-07-23T03:19:55;4.10;;;3.53;;
49826;SDS011;35715;51.570;6.036;2022-07-23T03:22:20;3.80;;;3.47;;
49826;SDS011;35715;51.570;6.036;2022-07-23T03:24:46;4.55;;;4.15;;
49826;SDS011;35715;51.570;6.036;2022-07-23T03:27:23;5.40;;;4.18;;
49826;SDS011;35715;51.570;6.036;2022-07-23T03:29:50;4.72;;;4.32;;
49826;SDS011;35715;51.570;6.036;2022-07-23T03:32:16;5.50;;;4.22;;
49826;SDS011;35715;51.570;6.036;2022-07-23T03:34:41;4.60;;;3.95;;
49826;SDS011;35715;51.570;6.036;2022-07-23T03:37:15;4.68;;;3.60;;
49826;SDS011;35715;51.570;6.036;2022-07-23T03:39:41;5.05;;;4.55;;
49826;SDS011;35715;51.570;6.036;2022-07-23T03:42:07;5.53;;;4.50;;
49826;SDS011;35715;51.570;6.036;2022-07-23T03:44:32;5.18;;;4.65;;
49826;SDS011;35715;51.570;6.036;2022-07-23T03:47:04;5.25;;;4.85;;
49826;SDS011;35715;51.570;6.036;2022-07-23T03:49:30;4.82;;;4.32;;
49826;SDS011;35715;51.570;6.036;2022-07-23T03:51:56;8.10;;;4.72;;
49826;SDS011;35715;51.570;6.036;2022-07-23T03:54:22;4.70;;;4.40;;
49826;SDS011;35715;51.570;6.036;2022-07-23T03:56:47;4.85;;;4.45;;
49826;SDS011;35715;51.570;6.036;2022-07-23T03:59:13;8.95;;;4.68;;
49826;SDS011;35715;51.570;6.036;2022-07-23T04:01:38;7.88;;;4.53;;
49826;SDS011;35715;51.570;6.036;2022-07-23T04:04:04;6.05;;;5.15;;
49826;SDS011;35715;51.570;6.036;2022-07-23T04:06:30;7.22;;;5.00;;
49826;SDS011;35715;51.570;6.036;2022-07-23T04:08:56;4.45;;;4.15;;
49826;SDS011;35715;51.570;6.036;2022-07-23T04:11:21;7.22;;;5.38;;
49826;SDS011;35715;51.570;6.036;2022-07-23T04:13:46;5.20;;;4.40;;
49826;SDS011;35715;51.570;6.036;2022-07-23T04:16:14;5.43;;;4.28;;
49826;SDS011;35715;51.570;6.036;2022-07-23T04:18:39;5.93;;;5.18;;
49826;SDS011;35715;51.570;6.036;2022-07-23T04:21:04;6.63;;;4.18;;
49826;SDS011;35715;51.570;6.036;2022-07-23T04:23:30;5.53;;;4.93;;
49826;SDS011;35715;51.570;6.036;2022-07-23T04:25:57;9.10;;;4.97;;
49826;SDS011;35715;51.570;6.036;2022-07-23T04:28:23;5.38;;;4.82;;
49826;SDS011;35715;51.570;6.036;2022-07-23T04:30:48;4.45;;;4.15;;
49826;SDS011;35715;51.570;6.036;2022-07-23T04:33:14;5.53;;;4.95;;
49826;SDS011;35715;51.570;6.036;2022-07-23T04:35:48;14.55;;;5.30;;
49826;SDS011;35715;51.570;6.036;2022-07-23T04:38:13;5.80;;;5.25;;
49826;SDS011;35715;51.570;6.036;2022-07-23T04:40:39;5.75;;;5.10;;
49826;SDS011;35715;51.570;6.036;2022-07-23T04:43:05;5.05;;;4.55;;
49826;SDS011;35715;51.570;6.036;2022-07-23T04:45:33;10.35;;;4.30;;
49826;SDS011;35715;51.570;6.036;2022-07-23T04:47:58;5.30;;;4.80;;
49826;SDS011;35715;51.570;6.036;2022-07-23T04:50:23;9.13;;;5.55;;
49826;SDS011;35715;51.570;6.036;2022-07-23T04:52:49;8.40;;;5.75;;
49826;SDS011;35715;51.570;6.036;2022-07-23T04:55:15;5.28;;;4.88;;
49826;SDS011;35715;51.570;6.036;2022-07-23T04:57:42;6.72;;;4.93;;
49826;SDS011;35715;51.570;6.036;2022-07-23T05:00:07;5.63;;;5.22;;
49826;SDS011;35715;51.570;6.036;2022-07-23T05:02:33;9.40;;;5.53;;
49826;SDS011;35715;51.570;6.036;2022-07-23T05:04:59;7.13;;;6.43;;
49826;SDS011;35715;51.570;6.036;2022-07-23T05:07:25;8.20;;;7.15;;
49826;SDS011;35715;51.570;6.036;2022-07-23T05:09:50;5.53;;;5.03;;
49826;SDS011;35715;51.570;6.036;2022-07-23T05:12:16;6.82;;;6.13;;
49826;SDS011;35715;51.570;6.036;2022-07-23T05:14:41;5.32;;;4.85;;
49826;SDS011;35715;51.570;6.036;2022-07-23T05:17:08;5.80;;;5.25;;
49826;SDS011;35715;51.570;6.036;2022-07-23T05:19:33;6.47;;;5.80;;
49826;SDS011;35715;51.570;6.036;2022-07-23T05:21:59;6.65;;;6.00;;
49826;SDS011;35715;51.570;6.036;2022-07-23T05:24:25;10.18;;;5.32;;
49826;SDS011;35715;51.570;6.036;2022-07-23T05:26:51;5.50;;;5.10;;
49826;SDS011;35715;51.570;6.036;2022-07-23T05:29:17;8.27;;;4.95;;
49826;SDS011;35715;51.570;6.036;2022-07-23T05:31:42;6.63;;;5.53;;
49826;SDS011;35715;51.570;6.036;2022-07-23T05:34:09;6.93;;;5.72;;
49826;SDS011;35715;51.570;6.036;2022-07-23T05:39:03;7.75;;;7.03;;
49826;SDS011;35715;51.570;6.036;2022-07-23T05:41:28;7.20;;;6.60;;
49826;SDS011;35715;51.570;6.036;2022-07-23T05:43:54;7.65;;;6.47;;
49826;SDS011;35715;51.570;6.036;2022-07-23T05:46:20;7.65;;;6.75;;
49826;SDS011;35715;51.570;6.036;2022-07-23T05:48:46;8.88;;;7.07;;
49826;SDS011;35715;51.570;6.036;2022-07-23T05:51:18;12.90;;;7.10;;
49826;SDS011;35715;51.570;6.036;2022-07-23T05:53:48;6.85;;;6.15;;
49826;SDS011;35715;51.570;6.036;2022-07-23T05:56:20;7.43;;;6.70;;
49826;SDS011;35715;51.570;6.036;2022-07-23T05:58:46;10.00;;;7.95;;
49826;SDS011;35715;51.570;6.036;2022-07-23T06:01:11;8.80;;;8.00;;
49826;SDS011;35715;51.570;6.036;2022-07-23T06:03:37;7.72;;;6.90;;
49826;SDS011;35715;51.570;6.036;2022-07-23T06:06:03;9.13;;;7.32;;
49826;SDS011;35715;51.570;6.036;2022-07-23T06:08:28;8.25;;;7.45;;
49826;SDS011;35715;51.570;6.036;2022-07-23T06:10:54;9.27;;;7.35;;
49826;SDS011;35715;51.570;6.036;2022-07-23T06:13:19;8.23;;;7.43;;
49826;SDS011;35715;51.570;6.036;2022-07-23T06:18:16;7.13;;;6.22;;
49826;SDS011;35715;51.570;6.036;2022-07-23T06:20:41;7.78;;;7.03;;
49826;SDS011;35715;51.570;6.036;2022-07-23T06:23:06;9.10;;;8.25;;
49826;SDS011;35715;51.570;6.036;2022-07-23T06:25:34;8.27;;;6.00;;
49826;SDS011;35715;51.570;6.036;2022-07-23T06:27:59;7.63;;;5.80;;
49826;SDS011;35715;51.570;6.036;2022-07-23T06:30:25;7.57;;;6.97;;
49826;SDS011;35715;51.570;6.036;2022-07-23T06:32:50;6.03;;;5.53;;
49826;SDS011;35715;51.570;6.036;2022-07-23T06:35:16;5.88;;;5.28;;
49826;SDS011;35715;51.570;6.036;2022-07-23T06:37:41;6.25;;;5.68;;
49826;SDS011;35715;51.570;6.036;2022-07-23T06:40:07;6.63;;;6.03;;
49826;SDS011;35715;51.570;6.036;2022-07-23T06:42:33;9.05;;;6.10;;
49826;SDS011;35715;51.570;6.036;2022-07-23T06:45:01;6.72;;;5.15;;
49826;SDS011;35715;51.570;6.036;2022-07-23T06:47:30;9.20;;;5.03;;
49826;SDS011;35715;51.570;6.036;2022-07-23T06:49:55;6.05;;;5.35;;
49826;SDS011;35715;51.570;6.036;2022-07-23T06:52:20;7.82;;;4.13;;
49826;SDS011;35715;51.570;6.036;2022-07-23T06:54:46;5.88;;;3.97;;
49826;SDS011;35715;51.570;6.036;2022-07-23T06:57:16;5.25;;;4.40;;
49826;SDS011;35715;51.570;6.036;2022-07-23T06:59:41;6.13;;;4.32;;
49826;SDS011;35715;51.570;6.036;2022-07-23T07:02:07;3.17;;;2.97;;
49826;SDS011;35715;51.570;6.036;2022-07-23T07:04:33;4.63;;;3.63;;
49826;SDS011;35715;51.570;6.036;2022-07-23T07:07:00;4.70;;;3.70;;
49826;SDS011;35715;51.570;6.036;2022-07-23T07:09:25;4.22;;;3.78;;
49826;SDS011;35715;51.570;6.036;2022-07-23T07:11:50;6.18;;;4.20;;
49826;SDS011;35715;51.570;6.036;2022-07-23T07:14:16;3.50;;;3.22;;
49826;SDS011;35715;51.570;6.036;2022-07-23T07:16:44;3.83;;;3.17;;
49826;SDS011;35715;51.570;6.036;2022-07-23T07:19:09;4.05;;;3.10;;
49826;SDS011;35715;51.570;6.036;2022-07-23T07:21:34;3.95;;;3.03;;
49826;SDS011;35715;51.570;6.036;2022-07-23T07:24:00;3.35;;;2.60;;
49826;SDS011;35715;51.570;6.036;2022-07-23T07:29:16;3.42;;;2.60;;
49826;SDS011;35715;51.570;6.036;2022-07-23T07:31:41;4.47;;;3.53;;
49826;SDS011;35715;51.570;6.036;2022-07-23T07:34:06;3.40;;;2.78;;
49826;SDS011;35715;51.570;6.036;2022-07-23T07:36:32;6.35;;;3.08;;
49826;SDS011;35715;51.570;6.036;2022-07-23T07:39:05;5.38;;;2.53;;
49826;SDS011;35715;51.570;6.036;2022-07-23T07:41:32;2.83;;;2.15;;
49826;SDS011;35715;51.570;6.036;2022-07-23T07:43:57;3.08;;;1.83;;
49826;SDS011;35715;51.570;6.036;2022-07-23T07:46:28;6.18;;;2.10;;
49826;SDS011;35715;51.570;6.036;2022-07-23T07:48:55;3.55;;;2.50;;
49826;SDS011;35715;51.570;6.036;2022-07-23T07:51:20;6.22;;;3.28;;
49826;SDS011;35715;51.570;6.036;2022-07-23T07:53:46;3.25;;;2.42;;
49826;SDS011;35715;51.570;6.036;2022-07-23T07:56:12;7.03;;;3.08;;
49826;SDS011;35715;51.570;6.036;2022-07-23T07:58:37;7.35;;;2.92;;
49826;SDS011;35715;51.570;6.036;2022-07-23T08:01:03;2.90;;;2.60;;
49826;SDS011;35715;51.570;6.036;2022-07-23T08:03:28;3.30;;;2.78;;
49826;SDS011;35715;51.570;6.036;2022-07-23T08:08:31;4.15;;;2.83;;
49826;SDS011;35715;51.570;6.036;2022-07-23T08:10:56;3.67;;;2.83;;
49826;SDS011;35715;51.570;6.036;2022-07-23T08:13:21;2.47;;;2.27;;
49826;SDS011;35715;51.570;6.036;2022-07-23T08:15:53;3.80;;;2.65;;
49826;SDS011;35715;51.570;6.036;2022-07-23T08:18:19;3.92;;;2.70;;
49826;SDS011;35715;51.570;6.036;2022-07-23T08:20:44;5.53;;;2.58;;
49826;SDS011;35715;51.570;6.036;2022-07-23T08:23:28;4.05;;;2.45;;
49826;SDS011;35715;51.570;6.036;2022-07-23T08:25:55;3.15;;;2.40;;
49826;SDS011;35715;51.570;6.036;2022-07-23T08:28:21;3.38;;;2.38;;
49826;SDS011;35715;51.570;6.036;2022-07-23T08:30:47;5.82;;;2.20;;
49826;SDS011;35715;51.570;6.036;2022-07-23T08:33:14;2.25;;;1.95;;
49826;SDS011;35715;51.570;6.036;2022-07-23T08:35:45;3.00;;;2.75;;
49826;SDS011;35715;51.570;6.036;2022-07-23T08:38:16;4.72;;;2.53;;
49826;SDS011;35715;51.570;6.036;2022-07-23T08:40:45;3.75;;;2.05;;
49826;SDS011;35715;51.570;6.036;2022-07-23T08:43:13;2.30;;;1.63;;
49826;SDS011;35715;51.570;6.036;2022-07-23T08:45:43;9.98;;;2.00;;
49826;SDS011;35715;51.570;6.036;2022-07-23T08:48:29;4.25;;;2.00;;
49826;SDS011;35715;51.570;6.036;2022-07-23T08:50:57;1.75;;;1.40;;
49826;SDS011;35715;51.570;6.036;2022-07-23T08:53:25;2.67;;;1.58;;
49826;SDS011;35715;51.570;6.036;2022-07-23T08:58:21;1.85;;;1.75;;
49826;SDS011;35715;51.570;6.036;2022-07-23T09:00:48;3.42;;;1.25;;
49826;SDS011;35715;51.570;6.036;2022-07-23T09:03:18;5.28;;;2.40;;
49826;SDS011;35715;51.570;6.036;2022-07-23T09:08:40;3.25;;;1.90;;
49826;SDS011;35715;51.570;6.036;2022-07-23T09:11:07;4.20;;;1.98;;
49826;SDS011;35715;51.570;6.036;2022-07-23T09:13:35;3.00;;;2.08;;
49826;SDS011;35715;51.570;6.036;2022-07-23T09:16:23;10.23;;;2.88;;
49826;SDS011;35715;51.570;6.036;2022-07-23T09:18:50;3.05;;;1.67;;
49826;SDS011;35715;51.570;6.036;2022-07-23T09:21:17;4.25;;;1.50;;
49826;SDS011;35715;51.570;6.036;2022-07-23T09:23:47;2.22;;;1.52;;
49826;SDS011;35715;51.570;6.036;2022-07-23T09:26:55;2.22;;;1.40;;
49826;SDS011;35715;51.570;6.036;2022-07-23T09:29:07;4.38;;;2.13;;
49826;SDS011;35715;51.570;6.036;2022-07-23T09:34:11;2.00;;;1.50;;
49826;SDS011;35715;51.570;6.036;2022-07-23T09:36:45;2.28;;;1.70;;
49826;SDS011;35715;51.570;6.036;2022-07-23T09:39:11;1.08;;;1.00;;
49826;SDS011;35715;51.570;6.036;2022-07-23T09:41:40;2.45;;;1.35;;
49826;SDS011;35715;51.570;6.036;2022-07-23T09:44:13;4.47;;;1.60;;
49826;SDS011;35715;51.570;6.036;2022-07-23T09:46:41;1.60;;;1.50;;
49826;SDS011;35715;51.570;6.036;2022-07-23T09:49:26;3.88;;;1.98;;
49826;SDS011;35715;51.570;6.036;2022-07-23T09:51:56;2.28;;;1.65;;
49826;SDS011;35715;51.570;6.036;2022-07-23T09:54:24;2.55;;;1.42;;
49826;SDS011;35715;51.570;6.036;2022-07-23T09:56:54;1.85;;;1.00;;
49826;SDS011;35715;51.570;6.036;2022-07-23T09:59:22;3.40;;;1.52;;
49826;SDS011;35715;51.570;6.036;2022-07-23T10:01:50;1.70;;;1.40;;
49826;SDS011;35715;51.570;6.036;2022-07-23T10:04:18;3.30;;;1.63;;
49826;SDS011;35715;51.570;6.036;2022-07-23T10:06:45;1.63;;;0.90;;
49826;SDS011;35715;51.570;6.036;2022-07-23T10:09:12;2.72;;;1.27;;
49826;SDS011;35715;51.570;6.036;2022-07-23T10:11:41;4.40;;;2.28;;
49826;SDS011;35715;51.570;6.036;2022-07-23T10:14:07;3.55;;;1.83;;
49826;SDS011;35715;51.570;6.036;2022-07-23T10:16:42;11.45;;;1.70;;
49826;SDS011;35715;51.570;6.036;2022-07-23T10:19:08;2.17;;;1.30;;
49826;SDS011;35715;51.570;6.036;2022-07-23T10:21:37;3.03;;;1.35;;
49826;SDS011;35715;51.570;6.036;2022-07-23T10:24:14;1.42;;;1.23;;
49826;SDS011;35715;51.570;6.036;2022-07-23T10:27:12;2.88;;;1.65;;
49826;SDS011;35715;51.570;6.036;2022-07-23T10:37:27;3.65;;;1.90;;
49826;SDS011;35715;51.570;6.036;2022-07-23T10:42:47;3.55;;;2.25;;
49826;SDS011;35715;51.570;6.036;2022-07-23T10:45:33;4.25;;;1.58;;
49826;SDS011;35715;51.570;6.036;2022-07-23T10:59:24;6.80;;;2.65;;
49826;SDS011;35715;51.570;6.036;2022-07-23T11:01:50;2.55;;;1.83;;
49826;SDS011;35715;51.570;6.036;2022-07-23T11:04:15;2.72;;;2.00;;
49826;SDS011;35715;51.570;6.036;2022-07-23T11:07:27;2.22;;;1.80;;
49826;SDS011;35715;51.570;6.036;2022-07-23T11:09:28;2.53;;;2.25;;
49826;SDS011;35715;51.570;6.036;2022-07-23T11:15:30;7.55;;;3.08;;
49826;SDS011;35715;51.570;6.036;2022-07-23T11:17:39;3.33;;;2.38;;
49826;SDS011;35715;51.570;6.036;2022-07-23T11:23:19;2.00;;;1.80;;
49826;SDS011;35715;51.570;6.036;2022-07-23T11:25:31;2.58;;;1.95;;
49826;SDS011;35715;51.570;6.036;2022-07-23T11:28:08;2.97;;;1.92;;
49826;SDS011;35715;51.570;6.036;2022-07-23T11:30:42;2.40;;;1.85;;
49826;SDS011;35715;51.570;6.036;2022-07-23T11:35:40;2.80;;;2.53;;
49826;SDS011;35715;51.570;6.036;2022-07-23T11:38:12;3.20;;;2.67;;
49826;SDS011;35715;51.570;6.036;2022-07-23T11:40:38;2.45;;;2.25;;
49826;SDS011;35715;51.570;6.036;2022-07-23T11:43:05;2.40;;;1.48;;
49826;SDS011;35715;51.570;6.036;2022-07-23T11:45:35;2.35;;;1.40;;
49826;SDS011;35715;51.570;6.036;2022-07-23T11:48:06;2.28;;;1.70;;
49826;SDS011;35715;51.570;6.036;2022-07-23T11:50:40;1.98;;;1.88;;
49826;SDS011;35715;51.570;6.036;2022-07-23T11:53:06;1.90;;;1.70;;
49826;SDS011;35715;51.570;6.036;2022-07-23T11:55:38;2.47;;;1.83;;
49826;SDS011;35715;51.570;6.036;2022-07-23T11:58:03;2.53;;;1.92;;
49826;SDS011;35715;51.570;6.036;2022-07-23T12:00:29;2.20;;;1.73;;
49826;SDS011;35715;51.570;6.036;2022-07-23T12:02:57;2.03;;;1.83;;
49826;SDS011;35715;51.570;6.036;2022-07-23T12:05:29;2.38;;;2.05;;
49826;SDS011;35715;51.570;6.036;2022-07-23T12:10:43;3.20;;;1.85;;
49826;SDS011;35715;51.570;6.036;2022-07-23T12:13:10;3.22;;;1.83;;
49826;SDS011;35715;51.570;6.036;2022-07-23T12:15:47;2.72;;;2.22;;
49826;SDS011;35715;51.570;6.036;2022-07-23T12:18:16;3.63;;;3.30;;
49826;SDS011;35715;51.570;6.036;2022-07-23T12:20:45;4.60;;;3.65;;
49826;SDS011;35715;51.570;6.036;2022-07-23T12:23:13;3.25;;;2.95;;
49826;SDS011;35715;51.570;6.036;2022-07-23T12:25:42;3.08;;;2.65;;
49826;SDS011;35715;51.570;6.036;2022-07-23T12:28:10;3.53;;;2.92;;
49826;SDS011;35715;51.570;6.036;2022-07-23T12:30:42;3.92;;;2.78;;
49826;SDS011;35715;51.570;6.036;2022-07-23T12:33:10;2.90;;;2.70;;
49826;SDS011;35715;51.570;6.036;2022-07-23T12:35:44;2.72;;;2.35;;
49826;SDS011;35715;51.570;6.036;2022-07-23T12:38:13;2.45;;;2.33;;
49826;SDS011;35715;51.570;6.036;2022-07-23T12:40:44;2.47;;;2.20;;
49826;SDS011;35715;51.570;6.036;2022-07-23T12:43:17;11.45;;;3.03;;
49826;SDS011;35715;51.570;6.036;2022-07-23T12:51:17;7.35;;;1.60;;
49826;SDS011;35715;51.570;6.036;2022-07-23T12:56:49;2.45;;;2.25;;
49826;SDS011;35715;51.570;6.036;2022-07-23T12:59:14;2.92;;;2.17;;
49826;SDS011;35715;51.570;6.036;2022-07-23T13:01:42;2.38;;;2.15;;
49826;SDS011;35715;51.570;6.036;2022-07-23T13:04:14;5.95;;;2.90;;
49826;SDS011;35715;51.570;6.036;2022-07-23T13:09:20;5.20;;;1.83;;
49826;SDS011;35715;51.570;6.036;2022-07-23T13:11:48;2.30;;;1.92;;
49826;SDS011;35715;51.570;6.036;2022-07-23T13:14:15;3.72;;;1.90;;
49826;SDS011;35715;51.570;6.036;2022-07-23T13:16:57;2.03;;;1.83;;
49826;SDS011;35715;51.570;6.036;2022-07-23T13:19:23;1.83;;;1.73;;
49826;SDS011;35715;51.570;6.036;2022-07-23T13:21:48;6.03;;;1.98;;
49826;SDS011;35715;51.570;6.036;2022-07-23T13:24:14;3.03;;;2.38;;
49826;SDS011;35715;51.570;6.036;2022-07-23T13:26:42;6.35;;;1.85;;
49826;SDS011;35715;51.570;6.036;2022-07-23T13:29:08;4.72;;;2.40;;
49826;SDS011;35715;51.570;6.036;2022-07-23T13:31:34;3.70;;;3.15;;
49826;SDS011;35715;51.570;6.036;2022-07-23T13:34:01;6.47;;;3.40;;
49826;SDS011;35715;51.570;6.036;2022-07-23T13:38:55;2.95;;;2.13;;
49826;SDS011;35715;51.570;6.036;2022-07-23T13:41:20;5.13;;;2.27;;
49826;SDS011;35715;51.570;6.036;2022-07-23T13:43:47;5.53;;;2.72;;
49826;SDS011;35715;51.570;6.036;2022-07-23T13:46:13;2.22;;;2.00;;
49826;SDS011;35715;51.570;6.036;2022-07-23T13:48:39;3.97;;;2.25;;
49826;SDS011;35715;51.570;6.036;2022-07-23T13:51:04;8.97;;;2.17;;
49826;SDS011;35715;51.570;6.036;2022-07-23T13:53:29;3.35;;;1.80;;
49826;SDS011;35715;51.570;6.036;2022-07-23T13:56:01;4.00;;;2.63;;
49826;SDS011;35715;51.570;6.036;2022-07-23T13:58:26;1.85;;;1.73;;
49826;SDS011;35715;51.570;6.036;2022-07-23T14:00:52;4.10;;;2.63;;
49826;SDS011;35715;51.570;6.036;2022-07-23T14:03:18;2.80;;;2.20;;
49826;SDS011;35715;51.570;6.036;2022-07-23T14:05:54;5.32;;;2.25;;
49826;SDS011;35715;51.570;6.036;2022-07-23T14:08:20;4.03;;;2.90;;
49826;SDS011;35715;51.570;6.036;2022-07-23T14:10:45;3.00;;;2.67;;
49826;SDS011;35715;51.570;6.036;2022-07-23T14:13:11;5.20;;;2.70;;
49826;SDS011;35715;51.570;6.036;2022-07-23T14:15:38;4.57;;;3.00;;
49826;SDS011;35715;51.570;6.036;2022-07-23T14:18:05;3.23;;;2.47;;
49826;SDS011;35715;51.570;6.036;2022-07-23T14:20:31;5.13;;;2.78;;
49826;SDS011;35715;51.570;6.036;2022-07-23T14:22:56;3.10;;;2.80;;
49826;SDS011;35715;51.570;6.036;2022-07-23T14:27:54;9.13;;;3.40;;
49826;SDS011;35715;51.570;6.036;2022-07-23T14:30:20;6.05;;;3.00;;
49826;SDS011;35715;51.570;6.036;2022-07-23T14:32:47;4.05;;;2.47;;
49826;SDS011;35715;51.570;6.036;2022-07-23T14:35:13;13.82;;;3.55;;
49826;SDS011;35715;51.570;6.036;2022-07-23T14:37:38;3.27;;;2.73;;
49826;SDS011;35715;51.570;6.036;2022-07-23T14:40:04;2.60;;;2.50;;
49826;SDS011;35715;51.570;6.036;2022-07-23T14:42:30;3.25;;;2.35;;
49826;SDS011;35715;51.570;6.036;2022-07-23T14:44:56;3.13;;;2.90;;
49826;SDS011;35715;51.570;6.036;2022-07-23T14:47:23;3.35;;;2.25;;
49826;SDS011;35715;51.570;6.036;2022-07-23T14:49:48;4.15;;;2.53;;
49826;SDS011;35715;51.570;6.036;2022-07-23T14:52:14;3.60;;;2.53;;
49826;SDS011;35715;51.570;6.036;2022-07-23T14:54:39;2.97;;;2.73;;
49826;SDS011;35715;51.570;6.036;2022-07-23T14:57:05;2.47;;;2.28;;
49826;SDS011;35715;51.570;6.036;2022-07-23T14:59:32;6.40;;;2.85;;
49826;SDS011;35715;51.570;6.036;2022-07-23T15:01:58;3.38;;;2.70;;
49826;SDS011;35715;51.570;6.036;2022-07-23T15:04:24;3.17;;;2.95;;
49826;SDS011;35715;51.570;6.036;2022-07-23T15:06:50;4.00;;;2.70;;
49826;SDS011;35715;51.570;6.036;2022-07-23T15:09:16;3.28;;;2.33;;
49826;SDS011;35715;51.570;6.036;2022-07-23T15:11:41;5.35;;;2.65;;
49826;SDS011;35715;51.570;6.036;2022-07-23T15:14:07;2.75;;;2.53;;
49826;SDS011;35715;51.570;6.036;2022-07-23T15:16:44;3.60;;;3.22;;
49826;SDS011;35715;51.570;6.036;2022-07-23T15:19:09;3.75;;;3.38;;
49826;SDS011;35715;51.570;6.036;2022-07-23T15:21:34;4.47;;;3.17;;
49826;SDS011;35715;51.570;6.036;2022-07-23T15:24:00;4.00;;;2.77;;
49826;SDS011;35715;51.570;6.036;2022-07-23T15:26:29;3.88;;;2.30;;
49826;SDS011;35715;51.570;6.036;2022-07-23T15:28:55;3.63;;;3.25;;
49826;SDS011;35715;51.570;6.036;2022-07-23T15:31:21;5.40;;;3.40;;
49826;SDS011;35715;51.570;6.036;2022-07-23T15:33:48;10.75;;;4.25;;
49826;SDS011;35715;51.570;6.036;2022-07-23T15:36:16;10.13;;;3.30;;
49826;SDS011;35715;51.570;6.036;2022-07-23T15:38:42;3.28;;;2.92;;
49826;SDS011;35715;51.570;6.036;2022-07-23T15:41:11;4.03;;;2.40;;
49826;SDS011;35715;51.570;6.036;2022-07-23T15:43:37;3.50;;;2.42;;
49826;SDS011;35715;51.570;6.036;2022-07-23T15:46:03;3.28;;;2.42;;
49826;SDS011;35715;51.570;6.036;2022-07-23T15:48:29;7.15;;;3.38;;
49826;SDS011;35715;51.570;6.036;2022-07-23T15:50:55;3.70;;;2.53;;
49826;SDS011;35715;51.570;6.036;2022-07-23T15:53:20;4.20;;;2.22;;
49826;SDS011;35715;51.570;6.036;2022-07-23T15:55:48;5.68;;;2.85;;
49826;SDS011;35715;51.570;6.036;2022-07-23T15:58:13;4.50;;;3.20;;
49826;SDS011;35715;51.570;6.036;2022-07-23T16:00:39;3.72;;;2.60;;
49826;SDS011;35715;51.570;6.036;2022-07-23T16:03:05;3.35;;;3.05;;
49826;SDS011;35715;51.570;6.036;2022-07-23T16:05:32;6.22;;;2.75;;